Time;durP1;ratioP1;P1;durP2;ratioP2;P2;SDS_P1;SDS_P2;PMS_P1;PMS_P2;Temp;Humidity;BMP_temperature;BMP_pressure;BME280_temperature;BME280_humidity;BME280_pressure;Samples;Min_cycle;Max_cycle;Signal;HPM_P1;HPM_P2
2022/10/23 00:01:22;;;;;;;;;;;;;;;21.14;28.26;98029.88;5057797;28;858;-79
2022/10/23 00:04:08;;;;;;;;;;;;;;;20.96;28.56;98032.31;5041176;28;1922;-79
2022/10/23 00:06:33;;;;;;;;;;;;;;;20.68;29.02;98031.75;5018223;28;1122;-79
2022/10/23 00:08:59;;;;;;;;;;;;;;;21.29;28.39;98033.91;5001629;28;950;-79
2022/10/23 00:11:25;;;;;;;;;;;;;;;21.62;27.66;98033.16;5018239;28;970;-79
2022/10/23 00:13:52;;;;;;;;;;;;;;;21.17;28.34;98028.97;5002198;28;768;-79
2022/10/23 00:16:17;;;;;;;;;;;;;;;21.04;28.72;98028.09;5001799;28;822;-79
2022/10/23 00:18:44;;;;;;;;;;;;;;;20.98;28.75;98024.19;5018052;28;870;-79
2022/10/23 00:21:10;;;;;;;;;;;;;;;20.77;28.84;98029.09;5017787;28;816;-79
2022/10/23 00:23:35;;;;;;;;;;;;;;;21.09;28.53;98033.22;5001588;28;1918;-79
2022/10/23 00:26:01;;;;;;;;;;;;;;;21.50;27.68;98034.66;5001360;28;944;-79
2022/10/23 00:28:27;;;;;;;;;;;;;;;21.60;27.57;98036.41;5001450;28;700;-79
2022/10/23 00:30:52;;;;;;;;;;;;;;;21.19;28.28;98029.34;5001093;28;1043;-79
2022/10/23 00:33:18;;;;;;;;;;;;;;;21.00;28.77;98024.56;5019007;28;803;-79
2022/10/23 00:35:43;;;;;;;;;;;;;;;20.67;29.29;98016.00;5037037;28;1184;-79
2022/10/23 00:38:09;;;;;;;;;;;;;;;20.98;28.89;98018.53;5020788;28;931;-79
2022/10/23 00:44:10;;;;;;;;;;;;;;;20.99;28.63;98015.28;5066946;28;1909;-79
2022/10/23 00:46:36;;;;;;;;;;;;;;;21.05;28.41;98019.16;5077995;28;779;-79
2022/10/23 00:49:02;;;;;;;;;;;;;;;20.85;28.91;98003.50;5077409;28;837;-79
2022/10/23 00:51:28;;;;;;;;;;;;;;;21.30;28.33;98012.94;5078002;28;818;-79
2022/10/23 00:53:55;;;;;;;;;;;;;;;21.35;28.21;98010.78;5061565;28;1178;-79
2022/10/23 00:56:21;;;;;;;;;;;;;;;21.17;28.28;98008.38;5040216;28;1302;-79
2022/10/23 00:58:46;;;;;;;;;;;;;;;20.84;28.89;98002.72;5040646;28;915;-79
2022/10/23 01:01:16;;;;;;;;;;;;;;;20.75;29.00;98003.31;5056674;28;940;-79
2022/10/23 01:03:42;;;;;;;;;;;;;;;21.13;28.65;97997.13;5040225;28;1918;-79
2022/10/23 01:06:09;;;;;;;;;;;;;;;21.29;28.08;97999.97;5039859;28;906;-79
2022/10/23 01:08:46;;;;;;;;;;;;;;;21.44;28.04;97993.97;5024014;28;1291;-79
2022/10/23 01:11:11;;;;;;;;;;;;;;;21.11;28.55;97993.19;5023655;28;1051;-79
2022/10/23 01:13:43;;;;;;;;;;;;;;;20.83;29.11;97988.97;5040306;28;1143;-79
2022/10/23 01:16:13;;;;;;;;;;;;;;;20.75;28.98;97977.06;5056527;28;777;-79
2022/10/23 01:18:40;;;;;;;;;;;;;;;20.79;28.81;97977.78;5023374;28;818;-79
2022/10/23 01:21:14;;;;;;;;;;;;;;;21.14;28.46;97986.63;5023469;28;1122;-79
2022/10/23 01:23:40;;;;;;;;;;;;;;;21.50;28.16;97980.88;5056710;28;1921;-79
2022/10/23 01:26:11;;;;;;;;;;;;;;;21.56;27.79;97979.09;5039866;28;1264;-79
2022/10/23 01:28:46;;;;;;;;;;;;;;;21.19;28.24;97984.06;5060935;28;1089;-79
2022/10/23 01:31:13;;;;;;;;;;;;;;;20.99;28.77;97992.66;5078461;28;755;-79
2022/10/23 01:33:43;;;;;;;;;;;;;;;20.72;29.04;97978.72;5060766;28;1293;-79
2022/10/23 01:36:10;;;;;;;;;;;;;;;21.40;27.97;97970.63;5060862;28;1201;-79
2022/10/23 01:38:39;;;;;;;;;;;;;;;21.45;28.02;97967.25;5076849;28;872;-79
2022/10/23 01:41:13;;;;;;;;;;;;;;;21.39;27.97;97964.16;5076987;28;1124;-79
2022/10/23 01:43:53;;;;;;;;;;;;;;;21.04;28.60;97975.16;5078095;28;1906;-79
2022/10/23 01:46:19;;;;;;;;;;;;;;;20.83;28.84;97955.06;5044003;28;1141;-79
2022/10/23 01:48:47;;;;;;;;;;;;;;;20.87;29.01;97962.22;5060722;28;1122;-79
2022/10/23 01:54:47;;;;;;;;;;;;;;;21.32;28.04;97975.69;5078024;28;829;-79
2022/10/23 01:57:13;;;;;;;;;;;;;;;20.99;28.87;97972.06;5076832;28;782;-79
2022/10/23 01:59:41;;;;;;;;;;;;;;;20.96;28.64;97970.88;5078569;28;1196;-79
2022/10/23 02:02:07;;;;;;;;;;;;;;;21.22;28.35;97965.41;5062013;28;1318;-79
2022/10/23 02:04:35;;;;;;;;;;;;;;;21.38;28.00;97967.44;5078945;28;1983;-79
2022/10/23 02:07:00;;;;;;;;;;;;;;;21.60;27.66;97962.78;5062391;28;1248;-79
2022/10/23 02:09:26;;;;;;;;;;;;;;;21.12;28.50;97967.25;5079237;28;857;-79
2022/10/23 02:12:00;;;;;;;;;;;;;;;20.92;28.86;97969.38;5096010;28;802;-79
2022/10/23 02:18:14;;;;;;;;;;;;;;;21.16;28.50;97973.63;5095649;28;912;-79
2022/10/23 02:20:40;;;;;;;;;;;;;;;21.26;28.32;97972.56;5062037;28;1090;-79
2022/10/23 02:23:19;;;;;;;;;;;;;;;21.67;27.58;97973.94;5078821;28;1220;-79
2022/10/23 02:26:04;;;;;;;;;;;;;;;21.02;28.60;97979.63;5061943;28;1129;-79
2022/10/23 02:28:32;;;;;;;;;;;;;;;20.98;28.91;97970.44;5061879;28;1332;-79
2022/10/23 02:31:00;;;;;;;;;;;;;;;20.98;28.56;97962.75;5079056;28;984;-79
2022/10/23 02:33:26;;;;;;;;;;;;;;;21.36;28.41;97964.28;5078795;28;876;-79
2022/10/23 02:35:52;;;;;;;;;;;;;;;21.38;28.42;97967.44;5062093;28;964;-79
2022/10/23 02:38:32;;;;;;;;;;;;;;;21.22;28.13;97960.53;5060185;28;1087;-79
2022/10/23 02:41:15;;;;;;;;;;;;;;;20.88;28.98;97963.84;5076249;28;1232;-79
2022/10/23 02:44:10;;;;;;;;;;;;;;;20.93;28.91;97970.97;5059069;28;1987;-79
2022/10/23 02:46:45;;;;;;;;;;;;;;;21.19;28.56;97960.63;5055112;28;1053;-79
2022/10/23 02:49:11;;;;;;;;;;;;;;;21.39;28.14;97961.34;5054961;28;1217;-79
2022/10/23 02:52:03;;;;;;;;;;;;;;;21.54;27.81;97970.25;5054729;28;895;-79
2022/10/23 02:54:37;;;;;;;;;;;;;;;21.60;27.93;97979.78;5054835;28;1129;-79
2022/10/23 02:57:12;;;;;;;;;;;;;;;21.02;28.69;97968.31;5037863;28;1466;-80
2022/10/23 02:59:50;;;;;;;;;;;;;;;21.02;28.82;97973.97;5053790;28;1320;-79
2022/10/23 03:02:25;;;;;;;;;;;;;;;20.79;29.38;97983.44;5037318;28;1111;-80
2022/10/23 03:04:51;;;;;;;;;;;;;;;21.00;28.89;97990.59;5054315;28;1910;-79
2022/10/23 03:07:17;;;;;;;;;;;;;;;21.02;28.72;97985.28;5053641;28;943;-80
2022/10/23 03:09:42;;;;;;;;;;;;;;;21.11;28.65;97979.81;5037274;28;1114;-79
2022/10/23 03:12:08;;;;;;;;;;;;;;;21.31;28.46;97974.88;5038577;28;1117;-79
2022/10/23 03:14:35;;;;;;;;;;;;;;;21.17;28.47;97975.22;5078265;28;1153;-79
2022/10/23 03:17:01;;;;;;;;;;;;;;;21.16;28.51;97982.13;5044808;28;1273;-79
2022/10/23 03:19:27;;;;;;;;;;;;;;;21.09;28.57;97979.47;5060697;28;1229;-80
2022/10/23 03:21:54;;;;;;;;;;;;;;;20.98;28.70;97984.59;5059324;28;1162;-79
2022/10/23 03:24:20;;;;;;;;;;;;;;;21.32;28.33;97987.78;5021052;28;1910;-79
2022/10/23 03:26:45;;;;;;;;;;;;;;;21.33;28.12;97994.25;5037613;28;751;-80
2022/10/23 03:29:11;;;;;;;;;;;;;;;21.55;27.87;98005.81;5005467;28;1127;-79
2022/10/23 03:31:42;;;;;;;;;;;;;;;21.07;28.79;98010.22;5021032;28;1151;-79
2022/10/23 03:34:10;;;;;;;;;;;;;;;21.14;28.49;98021.38;5005616;28;1275;-79
2022/10/23 03:36:37;;;;;;;;;;;;;;;21.05;28.87;98019.16;5022668;28;786;-79
2022/10/23 03:39:03;;;;;;;;;;;;;;;21.19;28.74;98018.03;5021992;28;1402;-79
2022/10/23 03:41:29;;;;;;;;;;;;;;;21.41;28.21;98012.66;5025294;28;791;-79
2022/10/23 03:43:55;;;;;;;;;;;;;;;21.29;28.27;98011.28;5058374;28;1977;-79
2022/10/23 03:46:21;;;;;;;;;;;;;;;21.09;28.49;98010.59;5057991;28;1368;-79
2022/10/23 03:48:51;;;;;;;;;;;;;;;21.04;28.83;98002.66;5045648;28;1038;-79
2022/10/23 03:51:16;;;;;;;;;;;;;;;20.88;29.17;98006.25;5044887;28;1315;-79
2022/10/23 03:53:42;;;;;;;;;;;;;;;21.17;28.77;97983.72;5078114;28;742;-79
2022/10/23 03:56:07;;;;;;;;;;;;;;;21.52;27.96;97989.72;5078243;28;944;-79
2022/10/23 03:58:33;;;;;;;;;;;;;;;21.51;28.07;97988.13;5061655;28;1104;-79
2022/10/23 04:00:58;;;;;;;;;;;;;;;21.37;28.06;97980.81;5044853;28;1062;-79
2022/10/23 04:03:25;;;;;;;;;;;;;;;21.10;28.59;97992.38;5061094;28;2003;-79
2022/10/23 04:05:51;;;;;;;;;;;;;;;21.05;28.70;97996.53;5077866;28;932;-79
2022/10/23 04:08:19;;;;;;;;;;;;;;;20.96;28.75;97990.69;5045133;28;1038;-80
2022/10/23 04:10:46;;;;;;;;;;;;;;;21.26;28.67;97989.53;5061358;28;1301;-79
2022/10/23 04:13:12;;;;;;;;;;;;;;;21.25;28.47;97995.66;5061107;28;1116;-79
2022/10/23 04:15:37;;;;;;;;;;;;;;;21.27;28.50;98002.44;5061441;28;1038;-79
2022/10/23 04:18:03;;;;;;;;;;;;;;;21.00;28.87;98005.53;5061705;28;1062;-79
2022/10/23 04:20:30;;;;;;;;;;;;;;;20.92;29.03;98003.31;5062539;28;1050;-79
2022/10/23 04:23:00;;;;;;;;;;;;;;;20.97;28.85;98002.78;5062092;28;1262;-79
2022/10/23 04:25:25;;;;;;;;;;;;;;;21.13;28.68;98014.13;5078371;28;1906;-80
2022/10/23 04:27:50;;;;;;;;;;;;;;;21.31;28.27;98008.84;5078847;28;1113;-79
2022/10/23 04:30:16;;;;;;;;;;;;;;;21.36;28.18;98006.72;5040350;28;1347;-79
2022/10/23 04:32:44;;;;;;;;;;;;;;;21.10;28.55;98002.91;5057299;28;1443;-79
2022/10/23 04:35:09;;;;;;;;;;;;;;;21.02;28.78;98013.59;5040856;28;1246;-79
2022/10/23 04:37:35;;;;;;;;;;;;;;;20.93;28.98;98013.38;5037292;28;1183;-79
2022/10/23 04:40:00;;;;;;;;;;;;;;;21.20;28.49;98011.13;5020695;28;934;-80
2022/10/23 04:42:26;;;;;;;;;;;;;;;21.44;28.15;98008.91;5001037;28;1227;-79
2022/10/23 04:44:51;;;;;;;;;;;;;;;21.13;28.75;98013.31;5017291;28;1902;-79
2022/10/23 04:47:17;;;;;;;;;;;;;;;21.18;28.41;98010.75;4984984;28;1131;-79
2022/10/23 04:49:53;;;;;;;;;;;;;;;21.25;28.45;98021.91;5017700;28;1241;-79
2022/10/23 04:52:44;;;;;;;;;;;;;;;21.19;28.89;98012.38;4997909;28;940;-80
2022/10/23 04:55:29;;;;;;;;;;;;;;;21.42;28.21;98007.78;4983817;28;859;-79
2022/10/23 04:58:17;;;;;;;;;;;;;;;21.53;28.23;98003.44;4984142;28;1253;-79
2022/10/23 05:00:43;;;;;;;;;;;;;;;21.08;28.66;98008.97;4986827;28;1179;-79
2022/10/23 05:03:08;;;;;;;;;;;;;;;21.21;28.87;98015.53;5011906;28;1158;-80
2022/10/23 05:05:38;;;;;;;;;;;;;;;20.90;29.18;98017.13;4997472;28;1918;-79
2022/10/23 05:08:26;;;;;;;;;;;;;;;21.37;28.59;98022.47;5030545;28;958;-79
2022/10/23 05:11:10;;;;;;;;;;;;;;;21.44;28.51;98022.28;5016784;28;1077;-79
2022/10/23 05:13:41;;;;;;;;;;;;;;;21.17;28.74;98026.16;5000554;28;1341;-80
2022/10/23 05:16:07;;;;;;;;;;;;;;;21.22;28.72;98027.66;5000886;28;1285;-79
2022/10/23 05:18:42;;;;;;;;;;;;;;;21.23;28.79;98037.72;5016894;28;1166;-80
2022/10/23 05:21:09;;;;;;;;;;;;;;;21.13;29.09;98031.09;5036757;28;1236;-79
2022/10/23 05:23:39;;;;;;;;;;;;;;;21.33;28.53;98034.66;5021061;28;1898;-79
2022/10/23 05:26:05;;;;;;;;;;;;;;;21.36;28.49;98035.84;5013325;28;1289;-79
2022/10/23 05:28:31;;;;;;;;;;;;;;;21.30;28.62;98041.22;5013352;28;1161;-79
2022/10/23 05:30:57;;;;;;;;;;;;;;;21.26;28.79;98034.81;5013312;28;1043;-79
2022/10/23 05:33:26;;;;;;;;;;;;;;;21.25;28.66;98038.09;5029306;28;1320;-79
2022/10/23 05:35:51;;;;;;;;;;;;;;;20.89;29.47;98032.50;5013079;28;1089;-79
2022/10/23 05:38:17;;;;;;;;;;;;;;;21.61;28.46;98038.03;5013719;28;1260;-79
2022/10/23 05:40:42;;;;;;;;;;;;;;;21.58;28.40;98024.75;5013373;28;1138;-80
2022/10/23 05:43:13;;;;;;;;;;;;;;;21.14;28.90;98038.38;5012395;28;1246;-79
2022/10/23 05:46:05;;;;;;;;;;;;;;;21.13;29.35;98031.09;5029237;28;1024;-79
2022/10/23 05:49:02;;;;;;;;;;;;;;;20.98;29.63;98024.19;5016458;28;1046;-79
2022/10/23 05:51:51;;;;;;;;;;;;;;;21.12;29.39;98018.19;5003090;28;1030;-79
2022/10/23 05:54:51;;;;;;;;;;;;;;;21.40;29.12;98038.56;4984795;28;930;-79
2022/10/23 05:57:48;;;;;;;;;;;;;;;21.36;29.15;98037.88;5016068;28;988;-79
2022/10/23 06:00:19;;;;;;;;;;;;;;;21.10;29.60;98026.34;5032622;28;1290;-79
2022/10/23 06:02:54;;;;;;;;;;;;;;;21.22;29.30;98022.78;5032844;28;1467;-79
2022/10/23 06:05:32;;;;;;;;;;;;;;;21.21;29.32;98026.88;5032545;28;1918;-79
2022/10/23 06:08:23;;;;;;;;;;;;;;;21.49;29.38;98031.03;4982680;28;1097;-79
2022/10/23 06:10:49;;;;;;;;;;;;;;;21.53;29.00;98047.94;4973923;28;1207;-79
2022/10/23 06:13:15;;;;;;;;;;;;;;;21.29;29.27;98062.22;4957599;29;1029;-80
2022/10/23 06:15:41;;;;;;;;;;;;;;;21.13;29.70;98065.03;4970413;28;1222;-79
2022/10/23 06:18:36;;;;;;;;;;;;;;;21.24;29.58;98073.28;4951661;29;1043;-79
2022/10/23 06:21:08;;;;;;;;;;;;;;;21.00;30.04;98072.66;4954142;28;1399;-79
2022/10/23 06:23:34;;;;;;;;;;;;;;;21.08;29.90;98059.91;4938000;29;1984;-79
2022/10/23 06:26:02;;;;;;;;;;;;;;;21.40;29.54;98072.50;4953368;29;865;-79
2022/10/23 06:28:39;;;;;;;;;;;;;;;21.15;29.77;98068.25;4968965;28;1280;-79
2022/10/23 06:31:08;;;;;;;;;;;;;;;21.24;29.76;98065.59;4953943;28;1230;-79
2022/10/23 06:33:34;;;;;;;;;;;;;;;20.97;30.28;98076.34;4973687;28;1303;-79
2022/10/23 06:36:02;;;;;;;;;;;;;;;21.42;29.61;98075.72;4973581;28;941;-79
2022/10/23 06:38:28;;;;;;;;;;;;;;;21.46;29.64;98070.78;4989285;28;1135;-79
2022/10/23 06:40:55;;;;;;;;;;;;;;;21.49;29.66;98058.53;4988878;28;1160;-79
2022/10/23 06:43:32;;;;;;;;;;;;;;;21.26;29.96;98063.13;4987436;28;1895;-79
2022/10/23 06:46:13;;;;;;;;;;;;;;;21.27;30.17;98055.44;5034644;28;1455;-79
2022/10/23 06:48:57;;;;;;;;;;;;;;;21.08;30.60;98057.09;5040383;28;883;-79
2022/10/23 06:51:28;;;;;;;;;;;;;;;21.11;30.57;98061.88;5038101;28;1264;-79
2022/10/23 06:53:55;;;;;;;;;;;;;;;21.62;29.95;98050.16;5037721;28;1255;-79
2022/10/23 06:56:46;;;;;;;;;;;;;;;21.59;30.17;98057.47;5002252;28;1094;-79
2022/10/23 06:59:15;;;;;;;;;;;;;;;21.36;30.23;98071.84;4998475;28;1154;-79
2022/10/23 07:01:41;;;;;;;;;;;;;;;21.37;30.52;98079.88;5031024;28;1259;-79
2022/10/23 07:04:08;;;;;;;;;;;;;;;21.19;30.67;98083.13;5035229;28;1906;-79
2022/10/23 07:06:33;;;;;;;;;;;;;;;21.07;30.95;98100.75;5018418;28;1142;-79
2022/10/23 07:09:00;;;;;;;;;;;;;;;21.36;30.66;98095.28;5018373;28;1387;-80
2022/10/23 07:11:43;;;;;;;;;;;;;;;21.51;30.29;98107.03;5020797;28;1010;-79
2022/10/23 07:14:09;;;;;;;;;;;;;;;21.35;30.66;98115.50;5018203;28;1273;-79
2022/10/23 07:16:35;;;;;;;;;;;;;;;21.15;31.03;98113.53;5018232;28;1425;-79
2022/10/23 07:19:00;;;;;;;;;;;;;;;21.17;31.17;98105.38;5018463;28;1139;-79
2022/10/23 07:21:27;;;;;;;;;;;;;;;21.19;31.25;98108.59;5018299;28;937;-79
2022/10/23 07:23:56;;;;;;;;;;;;;;;20.88;31.48;98098.75;5034510;28;1981;-79
2022/10/23 07:26:23;;;;;;;;;;;;;;;21.36;30.90;98091.66;5014959;28;1077;-79
2022/10/23 07:32:23;;;;;;;;;;;;;;;21.27;31.22;98080.91;5015629;28;929;-79
2022/10/23 07:35:15;;;;;;;;;;;;;;;21.17;31.25;98082.75;5094675;28;935;-79
2022/10/23 07:37:49;;;;;;;;;;;;;;;21.03;31.64;98089.50;5078248;28;1215;-79
2022/10/23 07:40:16;;;;;;;;;;;;;;;21.21;31.36;98094.78;5077865;28;1358;-79
2022/10/23 07:42:43;;;;;;;;;;;;;;;21.35;31.26;98107.00;5077770;28;1427;-79
2022/10/23 07:45:10;;;;;;;;;;;;;;;21.18;31.32;98106.97;5077603;28;1964;-79
2022/10/23 07:47:38;;;;;;;;;;;;;;;21.50;31.42;98111.09;5078432;28;1276;-79
2022/10/23 07:50:04;;;;;;;;;;;;;;;21.61;31.13;98133.50;5077904;28;1227;-80
2022/10/23 07:52:30;;;;;;;;;;;;;;;21.24;31.71;98144.03;5054478;28;1257;-79
2022/10/23 07:58:42;;;;;;;;;;;;;;;20.94;32.41;98153.59;4997091;28;959;-79
2022/10/23 08:01:26;;;;;;;;;;;;;;;21.19;31.89;98159.50;5014209;28;1152;-79
2022/10/23 08:03:52;;;;;;;;;;;;;;;21.35;31.93;98160.78;5014940;28;1910;-79
2022/10/23 08:06:17;;;;;;;;;;;;;;;21.38;31.94;98168.41;5014998;28;1041;-79
2022/10/23 08:08:47;;;;;;;;;;;;;;;21.38;31.71;98176.91;5015027;28;1306;-79
2022/10/23 08:14:47;;;;;;;;;;;;;;;21.15;32.10;98174.97;5017929;28;916;-79
2022/10/23 08:17:12;;;;;;;;;;;;;;;21.12;31.89;98187.94;5034508;28;1363;-79
2022/10/23 08:19:58;;;;;;;;;;;;;;;21.08;31.81;98188.00;5004563;28;901;-79
2022/10/23 08:22:27;;;;;;;;;;;;;;;21.23;31.94;98185.69;5034126;28;786;-79
2022/10/23 08:24:53;;;;;;;;;;;;;;;21.33;31.81;98170.53;5034170;28;1984;-79
2022/10/23 08:27:18;;;;;;;;;;;;;;;21.36;31.71;98179.38;5037504;28;933;-79
2022/10/23 08:29:46;;;;;;;;;;;;;;;21.32;31.78;98185.91;5077125;28;1408;-79
2022/10/23 08:32:11;;;;;;;;;;;;;;;21.15;32.28;98181.44;5078880;28;1106;-79
2022/10/23 08:35:03;;;;;;;;;;;;;;;21.24;32.20;98194.97;5064118;28;1150;-79
2022/10/23 08:37:30;;;;;;;;;;;;;;;21.20;31.82;98195.06;5060601;28;1237;-79
2022/10/23 08:39:56;;;;;;;;;;;;;;;21.16;31.94;98182.22;5060460;28;1244;-79
2022/10/23 08:42:43;;;;;;;;;;;;;;;21.45;31.48;98171.06;5017279;28;1182;-79
2022/10/23 08:45:26;;;;;;;;;;;;;;;21.42;31.58;98177.63;5000974;28;1914;-79
2022/10/23 08:48:00;;;;;;;;;;;;;;;21.23;31.87;98194.16;5002030;28;1473;-79
2022/10/23 08:50:30;;;;;;;;;;;;;;;21.32;31.82;98185.91;5000986;28;772;-79
2022/10/23 08:53:00;;;;;;;;;;;;;;;21.05;32.12;98185.28;5016979;28;1075;-79
2022/10/23 08:55:26;;;;;;;;;;;;;;;21.12;31.85;98176.63;5001030;28;767;-79
2022/10/23 08:57:59;;;;;;;;;;;;;;;21.05;32.02;98171.13;5000738;28;1162;-80
2022/10/23 09:00:25;;;;;;;;;;;;;;;21.64;31.61;98177.91;5000185;28;923;-80
2022/10/23 09:02:51;;;;;;;;;;;;;;;21.52;31.53;98170.91;5016879;28;739;-79
2022/10/23 09:05:35;;;;;;;;;;;;;;;21.18;32.42;98180.53;5000312;28;1981;-79
2022/10/23 09:08:03;;;;;;;;;;;;;;;21.19;32.17;98179.31;5016511;28;912;-79
2022/10/23 09:10:55;;;;;;;;;;;;;;;21.34;32.09;98188.28;5015935;28;779;-80
2022/10/23 09:13:23;;;;;;;;;;;;;;;21.07;32.39;98177.94;5016269;28;985;-80
2022/10/23 09:15:51;;;;;;;;;;;;;;;21.05;32.14;98176.78;4977257;28;934;-80
2022/10/23 09:18:17;;;;;;;;;;;;;;;21.12;32.05;98182.28;4961271;28;1030;-80
2022/10/23 09:20:45;;;;;;;;;;;;;;;21.49;31.84;98200.09;4995357;28;1286;-80
2022/10/23 09:23:14;;;;;;;;;;;;;;;21.63;31.44;98204.66;5001628;28;1328;-79
2022/10/23 09:25:40;;;;;;;;;;;;;;;21.23;32.11;98205.47;4993699;28;1910;-79
2022/10/23 09:28:06;;;;;;;;;;;;;;;21.05;32.56;98205.09;4993701;28;791;-79
2022/10/23 09:30:33;;;;;;;;;;;;;;;21.08;32.43;98218.34;4993902;28;1028;-79
2022/10/23 09:32:59;;;;;;;;;;;;;;;20.99;32.39;98226.63;4977439;28;1117;-79
2022/10/23 09:35:25;;;;;;;;;;;;;;;21.03;32.34;98228.13;4996213;28;1198;-80
2022/10/23 09:37:53;;;;;;;;;;;;;;;20.98;32.37;98222.19;4980689;28;1163;-80
2022/10/23 09:40:19;;;;;;;;;;;;;;;21.42;32.10;98222.91;4980964;28;826;-79
2022/10/23 09:42:55;;;;;;;;;;;;;;;21.62;31.58;98220.03;4980365;28;1173;-79
2022/10/23 09:45:21;;;;;;;;;;;;;;;21.38;31.80;98205.22;4980244;28;1910;-79
2022/10/23 09:47:47;;;;;;;;;;;;;;;21.15;32.18;98215.38;4964092;28;1053;-80
2022/10/23 09:50:17;;;;;;;;;;;;;;;21.05;32.55;98222.84;5007361;28;943;-79
2022/10/23 09:52:43;;;;;;;;;;;;;;;21.22;31.75;98212.38;5004956;28;771;-80
2022/10/23 09:55:17;;;;;;;;;;;;;;;20.95;32.59;98214.59;5035526;28;846;-79
2022/10/23 09:57:43;;;;;;;;;;;;;;;20.99;32.37;98223.81;5003067;28;806;-80
2022/10/23 10:00:16;;;;;;;;;;;;;;;21.56;31.24;98228.25;5018967;28;946;-80
2022/10/23 10:02:42;;;;;;;;;;;;;;;21.39;31.73;98223.78;5002875;28;921;-80
2022/10/23 10:05:33;;;;;;;;;;;;;;;21.02;32.18;98231.41;5008330;28;1914;-79
2022/10/23 10:08:08;;;;;;;;;;;;;;;21.00;32.07;98239.53;5040372;28;1079;-79
2022/10/23 10:10:53;;;;;;;;;;;;;;;21.08;32.13;98233.28;5058120;28;742;-79
2022/10/23 10:13:24;;;;;;;;;;;;;;;21.11;32.07;98242.94;5057734;28;727;-79
2022/10/23 10:15:52;;;;;;;;;;;;;;;21.31;31.83;98234.47;5057755;28;802;-80
2022/10/23 10:18:24;;;;;;;;;;;;;;;21.30;31.58;98228.03;5056590;28;731;-79
2022/10/23 10:23:55;;;;;;;;;;;;;;;21.04;31.81;98220.47;5056696;28;1905;-80
2022/10/23 10:26:39;;;;;;;;;;;;;;;20.90;31.88;98215.09;5056312;28;1040;-80
2022/10/23 10:29:10;;;;;;;;;;;;;;;21.05;31.73;98213.56;5039819;28;1297;-79
2022/10/23 10:31:36;;;;;;;;;;;;;;;21.58;30.90;98214.44;5057343;28;719;-79
2022/10/23 10:34:20;;;;;;;;;;;;;;;21.48;30.91;98216.28;5057296;28;731;-79
2022/10/23 10:40:29;;;;;;;;;;;;;;;21.19;31.59;98230.25;5057343;28;656;-79
2022/10/23 10:43:18;;;;;;;;;;;;;;;21.01;31.77;98238.31;5056101;28;1189;-80
2022/10/23 10:45:45;;;;;;;;;;;;;;;21.12;31.52;98244.53;5015165;28;1910;-80
2022/10/23 10:48:20;;;;;;;;;;;;;;;21.03;31.67;98247.16;4976571;28;842;-80
2022/10/23 10:51:20;;;;;;;;;;;;;;;20.97;31.77;98243.22;4989851;28;907;-79
2022/10/23 10:54:00;;;;;;;;;;;;;;;21.42;31.23;98234.25;4960501;28;1132;-80
2022/10/23 10:56:26;;;;;;;;;;;;;;;21.50;30.85;98238.50;4976111;28;950;-80
2022/10/23 10:58:53;;;;;;;;;;;;;;;21.44;31.02;98224.06;4992225;28;1103;-80
2022/10/23 11:01:48;;;;;;;;;;;;;;;21.38;30.80;98222.19;4976029;28;1198;-80
2022/10/23 11:04:17;;;;;;;;;;;;;;;21.23;31.51;98227.34;4975451;28;1976;-80
2022/10/23 11:06:43;;;;;;;;;;;;;;;21.10;31.38;98238.53;4959045;28;891;-80
2022/10/23 11:09:29;;;;;;;;;;;;;;;20.97;31.49;98231.91;4918330;29;973;-80
2022/10/23 11:11:56;;;;;;;;;;;;;;;20.96;31.67;98228.28;4918899;29;1105;-79
2022/10/23 11:14:23;;;;;;;;;;;;;;;21.08;31.29;98227.63;4918784;29;847;-80
2022/10/23 11:16:49;;;;;;;;;;;;;;;21.11;31.11;98223.16;4918510;29;1067;-79
2022/10/23 11:19:33;;;;;;;;;;;;;;;21.09;31.37;98225.63;4918639;29;843;-79
2022/10/23 11:25:50;;;;;;;;;;;;;;;21.15;31.27;98248.53;4955297;28;1910;-79
2022/10/23 11:28:18;;;;;;;;;;;;;;;20.99;31.36;98247.25;4975547;28;924;-80
2022/10/23 11:31:02;;;;;;;;;;;;;;;20.94;31.55;98241.28;4976154;28;1180;-80
2022/10/23 11:33:57;;;;;;;;;;;;;;;20.91;31.54;98242.16;4977738;28;969;-79
2022/10/23 11:36:41;;;;;;;;;;;;;;;21.00;31.20;98251.66;4979643;28;1020;-79
2022/10/23 11:39:32;;;;;;;;;;;;;;;20.92;31.57;98246.56;4978019;28;817;-79
2022/10/23 11:42:04;;;;;;;;;;;;;;;21.27;31.08;98240.19;4959980;29;1143;-79
2022/10/23 11:44:48;;;;;;;;;;;;;;;21.32;30.83;98239.69;4960109;29;1984;-79
2022/10/23 11:47:24;;;;;;;;;;;;;;;21.01;31.15;98243.97;4960346;28;1098;-79
2022/10/23 11:49:50;;;;;;;;;;;;;;;21.10;31.13;98235.69;4960022;29;772;-79
2022/10/23 11:52:22;;;;;;;;;;;;;;;20.97;31.19;98231.91;4944354;29;1174;-79
2022/10/23 11:54:48;;;;;;;;;;;;;;;21.08;31.01;98240.97;4944076;29;1123;-79
2022/10/23 11:57:18;;;;;;;;;;;;;;;21.06;30.84;98240.63;4944181;29;701;-79
2022/10/23 11:59:43;;;;;;;;;;;;;;;20.87;31.41;98238.59;4957232;28;876;-79
2022/10/23 12:02:27;;;;;;;;;;;;;;;21.36;30.63;98233.16;4979366;28;812;-79
2022/10/23 12:04:53;;;;;;;;;;;;;;;21.28;30.62;98230.44;4995441;28;1918;-79
2022/10/23 12:07:24;;;;;;;;;;;;;;;21.10;31.04;98249.84;4979061;28;1072;-80
2022/10/23 12:09:52;;;;;;;;;;;;;;;20.80;31.35;98245.97;4962741;28;865;-79
2022/10/23 12:12:30;;;;;;;;;;;;;;;21.07;30.85;98253.53;5007282;28;1221;-79
2022/10/23 12:15:27;;;;;;;;;;;;;;;20.93;30.98;98259.47;4985801;28;1271;-79
2022/10/23 12:17:53;;;;;;;;;;;;;;;21.14;30.74;98252.59;5000404;28;1015;-79
2022/10/23 12:20:30;;;;;;;;;;;;;;;21.43;30.26;98252.81;5034665;28;1273;-79
2022/10/23 12:23:11;;;;;;;;;;;;;;;21.24;30.55;98266.53;5018392;28;922;-79
2022/10/23 12:25:49;;;;;;;;;;;;;;;21.01;31.01;98269.44;5017842;28;1967;-79
2022/10/23 12:28:26;;;;;;;;;;;;;;;20.95;31.10;98263.47;5017799;28;907;-79
2022/10/23 12:30:58;;;;;;;;;;;;;;;20.99;30.93;98263.41;5034482;28;1252;-79
2022/10/23 12:37:03;;;;;;;;;;;;;;;21.27;30.43;98259.19;5017837;28;708;-79
2022/10/23 12:39:29;;;;;;;;;;;;;;;21.47;30.34;98264.88;5017446;28;819;-79
2022/10/23 12:41:55;;;;;;;;;;;;;;;21.16;30.82;98267.91;5014271;28;1121;-79
2022/10/23 12:44:20;;;;;;;;;;;;;;;21.00;31.12;98265.81;4996525;28;1914;-79
2022/10/23 12:46:46;;;;;;;;;;;;;;;21.04;30.87;98262.91;5014130;28;990;-80
2022/10/23 12:49:13;;;;;;;;;;;;;;;21.04;30.84;98265.75;4998065;28;810;-79
2022/10/23 12:51:38;;;;;;;;;;;;;;;20.89;30.91;98270.09;4997802;28;937;-80
2022/10/23 12:54:12;;;;;;;;;;;;;;;21.46;30.16;98268.94;5039181;28;878;-79
2022/10/23 12:56:37;;;;;;;;;;;;;;;21.39;30.11;98275.53;5057328;28;873;-80
2022/10/23 12:59:03;;;;;;;;;;;;;;;21.13;30.51;98273.63;5056890;28;801;-80
2022/10/23 13:01:29;;;;;;;;;;;;;;;20.87;31.00;98272.53;5040355;28;1132;-80
2022/10/23 13:03:57;;;;;;;;;;;;;;;21.02;30.81;98262.53;5040100;28;1914;-79
2022/10/23 13:06:22;;;;;;;;;;;;;;;21.09;30.51;98279.38;5040174;28;816;-80
2022/10/23 13:08:48;;;;;;;;;;;;;;;20.99;30.91;98274.72;5040196;28;790;-80
2022/10/23 13:11:38;;;;;;;;;;;;;;;20.94;30.68;98278.84;5060333;28;1169;-80
2022/10/23 13:14:10;;;;;;;;;;;;;;;20.96;30.74;98287.69;5058432;28;1103;-80
2022/10/23 13:16:35;;;;;;;;;;;;;;;21.50;30.08;98276.13;5074548;28;1110;-80
2022/10/23 13:19:01;;;;;;;;;;;;;;;21.55;29.91;98281.28;5041234;28;1170;-80
2022/10/23 13:21:27;;;;;;;;;;;;;;;21.05;30.57;98278.66;5058794;28;762;-79
2022/10/23 13:23:52;;;;;;;;;;;;;;;21.17;30.65;98280.81;5040991;28;1909;-79
2022/10/23 13:29:52;;;;;;;;;;;;;;;20.86;31.00;98287.91;5036422;28;894;-80
2022/10/23 13:32:24;;;;;;;;;;;;;;;20.90;30.91;98291.47;5036517;28;1329;-79
2022/10/23 13:34:57;;;;;;;;;;;;;;;21.33;30.17;98299.94;5036322;28;951;-80
2022/10/23 13:37:22;;;;;;;;;;;;;;;21.40;29.93;98298.97;5036463;28;817;-79
2022/10/23 13:39:57;;;;;;;;;;;;;;;21.21;30.59;98297.72;5019858;28;1088;-79
2022/10/23 13:42:23;;;;;;;;;;;;;;;21.22;30.23;98305.78;5052543;28;1086;-79
2022/10/23 13:44:48;;;;;;;;;;;;;;;20.87;30.96;98301.59;5036309;28;1898;-79
2022/10/23 13:47:14;;;;;;;;;;;;;;;20.93;31.01;98304.72;5052764;28;1098;-79
2022/10/23 13:49:39;;;;;;;;;;;;;;;20.84;30.91;98301.69;5052626;28;947;-79
2022/10/23 13:52:07;;;;;;;;;;;;;;;20.96;30.99;98295.38;5035901;28;839;-79
2022/10/23 13:54:32;;;;;;;;;;;;;;;21.42;30.04;98296.53;5036009;28;1112;-80
2022/10/23 13:56:58;;;;;;;;;;;;;;;21.33;30.10;98289.41;5050291;28;880;-79
2022/10/23 13:59:23;;;;;;;;;;;;;;;21.02;30.69;98302.94;5059016;28;747;-79